Time;durP1;ratioP1;P1;durP2;ratioP2;P2;SDS_P1;SDS_P2;PMS_P1;PMS_P2;Temp;Humidity;BMP_temperature;BMP_pressure;BME280_temperature;BME280_humidity;BME280_pressure;Samples;Min_cycle;Max_cycle;Signal;HPM_P1;HPM_P2
2020/12/01 00:00:52;;;;;;;0.50;0.50;;;8.10;99.90;;;;;;4985097;28;20227;-91
2020/12/01 00:03:18;;;;;;;3.50;0.60;;;8.20;99.90;;;;;;5001916;28;20287;-90
2020/12/01 00:05:44;;;;;;;0.57;0.53;;;8.20;99.90;;;;;;4981456;28;20224;-93
2020/12/01 00:08:10;;;;;;;4.20;1.23;;;8.30;99.90;;;;;;4953143;28;20385;-91
2020/12/01 00:10:36;;;;;;;3.13;1.07;;;8.30;99.90;;;;;;4966476;28;20351;-92
2020/12/01 00:13:03;;;;;;;5.40;1.23;;;8.20;99.90;;;;;;4965427;28;20667;-93
2020/12/01 00:15:29;;;;;;;0.50;0.50;;;8.10;99.90;;;;;;4987619;28;20302;-90
2020/12/01 00:17:56;;;;;;;0.60;0.60;;;8.20;99.90;;;;;;4991268;28;20266;-92
2020/12/01 00:20:23;;;;;;;1.40;0.97;;;8.20;99.90;;;;;;4990749;28;20226;-90
2020/12/01 00:22:53;;;;;;;0.77;0.77;;;8.20;99.90;;;;;;4993099;28;20187;-90
2020/12/01 00:25:19;;;;;;;0.67;0.67;;;8.30;99.90;;;;;;4983568;28;20227;-90
2020/12/01 00:27:45;;;;;;;4.17;1.00;;;8.30;99.90;;;;;;4981729;28;20219;-89
2020/12/01 00:30:23;;;;;;;7.53;0.87;;;8.30;99.90;;;;;;4972928;28;20217;-93
2020/12/01 00:32:53;;;;;;;3.00;0.60;;;8.30;99.90;;;;;;5000491;28;20277;-90
2020/12/01 00:35:28;;;;;;;0.93;0.93;;;8.30;99.90;;;;;;4975104;28;21280;-93
2020/12/01 00:37:54;;;;;;;0.73;0.30;;;8.30;99.90;;;;;;4998934;28;20194;-90
2020/12/01 00:40:21;;;;;;;0.60;0.60;;;8.30;99.90;;;;;;4980666;28;20230;-90
2020/12/01 00:42:47;;;;;;;4.03;1.13;;;8.30;99.90;;;;;;4982730;28;20259;-93
2020/12/01 00:45:14;;;;;;;0.30;0.30;;;8.30;99.90;;;;;;4985081;28;20314;-90
2020/12/01 00:47:40;;;;;;;4.00;0.87;;;8.20;99.90;;;;;;5001021;28;20227;-90
2020/12/01 00:50:08;;;;;;;2.40;1.50;;;8.10;99.90;;;;;;4986696;28;20196;-92
2020/12/01 00:52:34;;;;;;;1.07;0.50;;;8.20;99.90;;;;;;4984731;28;20255;-92
2020/12/01 00:55:00;;;;;;;1.33;1.03;;;8.10;99.90;;;;;;4968610;28;20237;-92
2020/12/01 00:57:25;;;;;;;5.60;0.93;;;8.20;99.90;;;;;;4978014;28;21215;-91
2020/12/01 00:59:51;;;;;;;3.37;1.47;;;8.10;99.90;;;;;;5004056;28;21360;-90
2020/12/01 01:02:17;;;;;;;1.87;0.80;;;8.10;99.90;;;;;;4971182;28;20234;-93
2020/12/01 01:04:44;;;;;;;0.20;0.20;;;8.10;99.90;;;;;;4989194;28;20200;-92
2020/12/01 01:07:11;;;;;;;0.97;0.93;;;8.10;99.90;;;;;;4971798;28;20273;-92
2020/12/01 01:09:37;;;;;;;8.10;0.80;;;8.10;99.90;;;;;;4987424;28;20222;-91
2020/12/01 01:12:03;;;;;;;0.93;0.33;;;8.20;99.90;;;;;;4997825;28;20244;-91
2020/12/01 01:14:29;;;;;;;6.90;0.70;;;8.30;99.90;;;;;;4986386;28;20192;-91
2020/12/01 01:16:55;;;;;;;0.40;0.40;;;8.30;99.90;;;;;;5017479;28;20259;-93
2020/12/01 01:19:20;;;;;;;2.53;0.67;;;8.30;99.90;;;;;;4982144;28;20251;-90
2020/12/01 01:21:49;;;;;;;0.53;0.43;;;8.30;99.90;;;;;;4978956;28;20232;-92
2020/12/01 01:24:18;;;;;;;1.73;0.63;;;8.30;99.90;;;;;;4988233;28;20237;-94
2020/12/01 01:26:53;;;;;;;0.30;0.30;;;8.30;99.90;;;;;;4995099;28;20856;-93
2020/12/01 01:29:22;;;;;;;0.50;0.50;;;8.40;99.90;;;;;;4978083;28;20180;-91
2020/12/01 01:31:56;;;;;;;0.77;0.47;;;8.40;99.90;;;;;;4990233;28;20278;-90
2020/12/01 01:34:24;;;;;;;0.10;0.10;;;8.50;99.90;;;;;;4996114;28;20211;-91
2020/12/01 01:36:50;;;;;;;1.63;1.00;;;8.40;99.90;;;;;;5000793;28;20210;-92
2020/12/01 01:39:16;;;;;;;4.07;1.80;;;8.40;99.90;;;;;;4985767;28;21326;-92
2020/12/01 01:41:42;;;;;;;2.17;0.20;;;8.40;99.90;;;;;;4999335;28;20259;-94
2020/12/01 01:44:29;;;;;;;0.67;0.60;;;8.30;99.90;;;;;;4969500;28;20180;-90
2020/12/01 01:47:03;;;;;;;3.50;0.57;;;8.30;99.90;;;;;;5000175;28;20314;-90
2020/12/01 01:49:38;;;;;;;4.37;0.70;;;8.30;99.90;;;;;;5002148;28;20207;-92
2020/12/01 01:52:19;;;;;;;0.20;0.20;;;8.30;99.90;;;;;;4999538;28;20222;-90
2020/12/01 01:54:47;;;;;;;3.17;0.57;;;8.30;99.90;;;;;;4984796;28;20204;-93
2020/12/01 01:57:14;;;;;;;0.90;0.90;;;8.30;99.90;;;;;;4975770;28;20234;-90
2020/12/01 01:59:45;;;;;;;4.53;0.87;;;8.40;99.90;;;;;;5000049;28;20227;-93
2020/12/01 02:02:12;;;;;;;3.67;1.20;;;8.30;99.90;;;;;;4984984;28;20207;-91
2020/12/01 02:04:37;;;;;;;1.60;0.70;;;8.30;99.90;;;;;;5002649;28;20237;-92
2020/12/01 02:07:05;;;;;;;0.70;0.40;;;8.30;99.90;;;;;;4985934;28;20216;-91
2020/12/01 02:09:32;;;;;;;4.13;1.30;;;8.30;99.90;;;;;;4997409;28;20315;-90
2020/12/01 02:12:01;;;;;;;1.40;1.03;;;8.40;99.90;;;;;;5004689;28;20219;-90
2020/12/01 02:14:42;;;;;;;1.00;0.90;;;8.40;99.90;;;;;;5000536;28;20195;-91
2020/12/01 02:17:29;;;;;;;0.93;0.93;;;8.40;99.90;;;;;;4983600;28;20270;-91
2020/12/01 02:19:58;;;;;;;4.70;1.10;;;8.50;99.90;;;;;;5000032;28;20524;-90
2020/12/01 02:22:26;;;;;;;4.73;0.80;;;8.50;99.90;;;;;;4981282;28;20228;-91
2020/12/01 02:24:54;;;;;;;4.27;1.40;;;8.50;99.90;;;;;;4983015;28;21003;-92
2020/12/01 02:27:22;;;;;;;7.10;0.53;;;8.50;99.90;;;;;;4982683;28;21143;-91
2020/12/01 02:29:50;;;;;;;2.10;1.07;;;8.40;99.90;;;;;;4983101;28;20876;-90
2020/12/01 02:32:19;;;;;;;0.87;0.87;;;8.30;99.90;;;;;;4983539;28;20196;-92
2020/12/01 02:34:47;;;;;;;0.53;0.53;;;8.30;99.90;;;;;;4985279;28;20249;-90
2020/12/01 02:37:20;;;;;;;0.60;0.60;;;8.30;99.90;;;;;;4999615;28;20573;-90
2020/12/01 02:39:46;;;;;;;0.40;0.40;;;8.40;99.90;;;;;;5003074;28;20691;-89
2020/12/01 02:42:18;;;;;;;4.07;1.77;;;8.40;99.90;;;;;;5002095;28;20223;-90
2020/12/01 02:44:43;;;;;;;0.30;0.30;;;8.50;99.90;;;;;;5002234;28;20233;-91
2020/12/01 02:47:09;;;;;;;8.33;0.80;;;8.60;99.90;;;;;;5004952;28;20188;-93
2020/12/01 02:49:36;;;;;;;0.40;0.40;;;8.70;99.90;;;;;;4991940;28;20270;-91
2020/12/01 02:52:03;;;;;;;1.03;0.60;;;8.70;99.90;;;;;;4990531;28;20311;-89
2020/12/01 02:54:29;;;;;;;3.30;0.53;;;8.80;99.90;;;;;;4979626;28;20222;-91
2020/12/01 02:56:57;;;;;;;0.40;0.30;;;8.80;99.90;;;;;;4998062;28;20231;-90
2020/12/01 02:59:23;;;;;;;1.77;1.47;;;8.90;99.90;;;;;;4990107;28;20180;-90
2020/12/01 03:01:49;;;;;;;0.37;0.30;;;9.00;99.90;;;;;;4982873;28;20216;-91
2020/12/01 03:04:15;;;;;;;4.43;0.30;;;9.00;99.90;;;;;;4949501;28;20358;-90
2020/12/01 03:06:41;;;;;;;0.30;0.30;;;9.00;99.90;;;;;;4984330;28;20211;-90
2020/12/01 03:09:08;;;;;;;0.93;0.63;;;9.00;99.90;;;;;;4975278;28;20290;-90
2020/12/01 03:11:34;;;;;;;0.97;0.43;;;9.00;99.90;;;;;;4984619;28;20215;-90
2020/12/01 03:14:00;;;;;;;0.13;0.13;;;9.00;99.90;;;;;;4987255;28;21453;-91
2020/12/01 03:16:26;;;;;;;1.50;0.20;;;9.10;99.90;;;;;;4985207;28;20215;-89
2020/12/01 03:18:52;;;;;;;0.97;0.90;;;9.20;99.90;;;;;;4986665;28;20211;-90
2020/12/01 03:21:18;;;;;;;1.67;0.23;;;9.10;99.90;;;;;;4949479;28;21117;-91
2020/12/01 03:23:44;;;;;;;2.37;1.50;;;9.10;99.90;;;;;;4965888;28;20230;-89
2020/12/01 03:26:15;;;;;;;4.70;0.50;;;9.10;99.90;;;;;;4966674;28;20212;-90
2020/12/01 03:28:41;;;;;;;0.27;0.27;;;9.10;99.90;;;;;;4980348;28;20243;-89
2020/12/01 03:31:08;;;;;;;0.57;0.57;;;9.10;99.90;;;;;;4964181;28;20330;-90
2020/12/01 03:33:34;;;;;;;2.27;0.70;;;9.10;99.90;;;;;;4963742;28;20281;-90
2020/12/01 03:36:00;;;;;;;3.13;0.40;;;9.10;99.90;;;;;;4979453;28;20251;-91
2020/12/01 03:38:26;;;;;;;0.20;0.20;;;9.10;99.90;;;;;;4980226;28;20314;-90
2020/12/01 03:40:51;;;;;;;0.20;0.20;;;9.00;99.90;;;;;;4950089;28;20235;-89
2020/12/01 03:43:17;;;;;;;1.20;0.60;;;9.10;99.90;;;;;;4948228;28;20235;-90
2020/12/01 03:45:43;;;;;;;0.87;0.60;;;9.10;99.90;;;;;;4947761;28;20223;-91
2020/12/01 03:48:09;;;;;;;0.30;0.30;;;9.10;99.90;;;;;;4948262;28;20251;-89
2020/12/01 03:50:36;;;;;;;0.40;0.40;;;9.10;99.90;;;;;;4951296;28;20220;-89
2020/12/01 03:53:03;;;;;;;0.30;0.30;;;9.10;99.90;;;;;;5002043;28;20215;-90
2020/12/01 03:55:29;;;;;;;0.10;0.10;;;9.00;99.90;;;;;;4999778;28;20650;-88
2020/12/01 03:57:55;;;;;;;13.07;1.10;;;9.00;99.90;;;;;;4985794;28;20255;-89
2020/12/01 04:00:26;;;;;;;0.53;0.53;;;9.00;99.90;;;;;;4980641;28;20808;-90
2020/12/01 04:02:53;;;;;;;4.00;1.90;;;9.00;99.90;;;;;;4984571;28;20246;-90
2020/12/01 04:05:21;;;;;;;1.10;0.87;;;9.00;99.90;;;;;;4999483;28;20198;-90
2020/12/01 04:07:47;;;;;;;0.10;0.10;;;9.00;99.90;;;;;;5001125;28;20245;-90
2020/12/01 04:10:15;;;;;;;0.30;0.30;;;9.00;99.90;;;;;;4983300;28;20223;-88
2020/12/01 04:12:42;;;;;;;0.43;0.43;;;9.00;99.90;;;;;;4995624;28;20216;-88
2020/12/01 04:15:08;;;;;;;1.80;0.53;;;9.10;99.90;;;;;;4988509;28;20215;-89
2020/12/01 04:17:35;;;;;;;0.70;0.20;;;9.10;99.90;;;;;;4984123;28;20194;-89
2020/12/01 04:20:01;;;;;;;6.47;0.70;;;9.10;99.90;;;;;;5005519;28;20222;-90
2020/12/01 04:22:27;;;;;;;0.50;0.40;;;9.10;99.90;;;;;;5003184;28;20238;-91
2020/12/01 04:24:52;;;;;;;0.97;0.93;;;9.20;99.90;;;;;;4983977;28;20261;-91
2020/12/01 04:27:18;;;;;;;3.03;0.80;;;9.10;99.90;;;;;;4976479;28;20309;-90
2020/12/01 04:29:44;;;;;;;4.43;0.33;;;9.10;99.90;;;;;;5003157;28;20212;-89
2020/12/01 04:32:11;;;;;;;0.60;0.47;;;9.10;99.90;;;;;;5001096;28;20187;-90
2020/12/01 04:34:37;;;;;;;0.40;0.40;;;9.20;99.90;;;;;;4997900;28;20219;-89
2020/12/01 04:37:05;;;;;;;0.43;0.20;;;9.20;99.90;;;;;;4998329;28;20678;-91
2020/12/01 04:39:32;;;;;;;0.17;0.17;;;9.20;99.90;;;;;;4998781;28;20278;-92
2020/12/01 04:41:58;;;;;;;1.60;0.87;;;9.20;99.90;;;;;;4982804;28;20297;-90
2020/12/01 04:44:44;;;;;;;2.07;0.73;;;9.20;99.90;;;;;;4999495;28;20285;-90
2020/12/01 04:47:19;;;;;;;0.93;0.20;;;9.30;99.90;;;;;;5002624;28;20179;-89
2020/12/01 04:50:19;;;;;;;2.03;0.63;;;9.20;99.90;;;;;;5020086;28;20210;-89
2020/12/01 04:53:17;;;;;;;0.13;0.13;;;9.20;99.90;;;;;;4988283;28;20226;-91
2020/12/01 04:56:11;;;;;;;1.57;1.47;;;9.20;99.90;;;;;;4978488;28;20274;-89
2020/12/01 04:59:08;;;;;;;1.23;0.63;;;9.20;99.90;;;;;;5000218;28;20306;-88
2020/12/01 05:01:44;;;;;;;0.60;0.40;;;9.20;99.90;;;;;;5000148;28;20227;-89
2020/12/01 05:04:28;;;;;;;1.27;0.67;;;9.10;99.90;;;;;;5002138;28;20349;-87
2020/12/01 05:07:14;;;;;;;1.30;1.27;;;9.00;99.90;;;;;;4989139;28;20278;-89
2020/12/01 05:09:46;;;;;;;0.50;0.50;;;9.00;99.90;;;;;;4983317;28;20220;-89
2020/12/01 05:12:20;;;;;;;0.93;0.53;;;8.90;99.90;;;;;;4982634;28;20232;-86
2020/12/01 05:14:53;;;;;;;7.40;1.33;;;9.00;99.90;;;;;;4982319;28;20285;-88
2020/12/01 05:17:44;;;;;;;2.87;0.50;;;9.00;99.90;;;;;;4998591;28;20229;-88
2020/12/01 05:20:10;;;;;;;2.07;0.77;;;9.00;99.90;;;;;;4985057;28;21212;-90
2020/12/01 05:22:38;;;;;;;2.37;1.13;;;9.00;99.90;;;;;;5002688;28;20234;-92
2020/12/01 05:25:04;;;;;;;3.17;0.53;;;9.00;99.90;;;;;;4998738;28;20232;-87
2020/12/01 05:27:32;;;;;;;1.87;1.73;;;9.00;99.90;;;;;;5001415;28;20226;-88
2020/12/01 05:30:11;;;;;;;0.40;0.30;;;9.00;99.90;;;;;;5001694;28;20237;-89
2020/12/01 05:33:02;;;;;;;1.60;1.07;;;9.10;99.90;;;;;;4999445;28;20219;-90
2020/12/01 05:35:31;;;;;;;0.93;0.93;;;9.10;99.90;;;;;;4999975;28;20196;-89
2020/12/01 05:38:12;;;;;;;0.60;0.50;;;9.20;99.90;;;;;;5003264;28;20290;-91
2020/12/01 05:40:50;;;;;;;0.37;0.37;;;9.20;99.90;;;;;;5001951;28;20242;-89
2020/12/01 05:43:34;;;;;;;2.13;1.87;;;9.30;99.90;;;;;;4997565;28;20218;-91
2020/12/01 05:46:20;;;;;;;4.37;0.93;;;9.20;99.90;;;;;;5001855;28;20233;-87
2020/12/01 05:48:58;;;;;;;1.13;1.03;;;9.20;99.90;;;;;;5001189;28;20227;-89
2020/12/01 05:51:35;;;;;;;0.50;0.50;;;9.20;99.90;;;;;;5000778;28;20234;-88
2020/12/01 05:54:01;;;;;;;2.67;1.60;;;9.20;99.90;;;;;;5011942;28;20322;-91
2020/12/01 05:56:27;;;;;;;8.10;1.17;;;9.30;99.90;;;;;;4982169;28;20208;-88
2020/12/01 05:59:05;;;;;;;0.40;0.40;;;9.30;99.90;;;;;;4960572;28;20307;-87
2020/12/01 06:01:44;;;;;;;1.83;1.03;;;9.30;99.90;;;;;;4977558;28;20235;-91
2020/12/01 06:04:15;;;;;;;0.50;0.50;;;9.30;99.90;;;;;;4977994;28;20330;-90
2020/12/01 06:06:45;;;;;;;1.47;0.40;;;9.30;99.90;;;;;;4989052;28;20282;-88
2020/12/01 06:09:46;;;;;;;2.93;2.73;;;9.40;99.90;;;;;;4998284;28;20223;-88
2020/12/01 06:12:45;;;;;;;2.27;0.83;;;9.40;99.90;;;;;;4988258;28;20293;-89
2020/12/01 06:15:17;;;;;;;5.40;1.17;;;9.30;99.90;;;;;;4966795;28;20342;-90
2020/12/01 06:18:00;;;;;;;9.43;1.43;;;9.30;99.90;;;;;;4995289;28;20219;-90
2020/12/01 06:20:34;;;;;;;8.80;0.43;;;9.20;99.90;;;;;;4997142;28;20682;-89
2020/12/01 06:23:18;;;;;;;8.60;1.83;;;9.30;99.90;;;;;;4998077;28;20183;-92
2020/12/01 06:25:59;;;;;;;3.93;0.70;;;9.20;99.90;;;;;;4981253;28;20219;-89
2020/12/01 06:28:43;;;;;;;3.50;1.27;;;9.20;99.90;;;;;;4995215;28;21104;-89
2020/12/01 06:31:46;;;;;;;8.23;0.40;;;9.40;99.90;;;;;;4982132;28;20225;-91
2020/12/01 06:34:40;;;;;;;2.53;0.70;;;9.40;99.90;;;;;;4984022;28;20207;-89
2020/12/01 06:37:21;;;;;;;0.63;0.63;;;9.30;99.90;;;;;;4982629;28;20228;-89
2020/12/01 06:40:09;;;;;;;2.63;1.40;;;9.30;99.90;;;;;;4992830;28;20223;-88
2020/12/01 06:42:44;;;;;;;14.33;1.17;;;9.30;99.90;;;;;;4990339;28;20230;-89
2020/12/01 06:45:33;;;;;;;6.43;1.20;;;9.30;99.90;;;;;;4980801;28;20261;-87
2020/12/01 06:48:16;;;;;;;0.40;0.30;;;9.30;99.90;;;;;;4981689;28;20322;-90
2020/12/01 06:50:48;;;;;;;2.23;0.57;;;9.30;99.90;;;;;;4994872;28;20247;-89
2020/12/01 06:53:33;;;;;;;0.30;0.30;;;9.40;99.90;;;;;;5002556;28;20270;-88
2020/12/01 06:56:14;;;;;;;0.10;0.10;;;9.30;99.90;;;;;;5000056;28;20273;-92
2020/12/01 06:58:46;;;;;;;0.67;0.57;;;9.30;99.90;;;;;;4981257;28;20216;-91
2020/12/01 07:01:18;;;;;;;0.67;0.67;;;9.30;99.90;;;;;;5013860;28;20227;-90
2020/12/01 07:03:45;;;;;;;2.90;0.53;;;9.30;99.90;;;;;;4987389;28;20247;-90
2020/12/01 07:06:23;;;;;;;0.80;0.80;;;9.30;99.90;;;;;;4980202;28;20214;-89
2020/12/01 07:08:50;;;;;;;0.27;0.27;;;9.30;99.90;;;;;;4981604;28;20317;-89
2020/12/01 07:11:30;;;;;;;0.30;0.30;;;9.30;99.90;;;;;;4999443;28;20203;-90
2020/12/01 07:14:03;;;;;;;0.50;0.50;;;9.40;99.90;;;;;;4980822;28;20223;-92
2020/12/01 07:16:34;;;;;;;1.97;0.33;;;9.40;99.90;;;;;;4980532;28;20689;-92
2020/12/01 07:19:20;;;;;;;0.40;0.40;;;9.40;99.90;;;;;;4978639;28;20212;-90
2020/12/01 07:22:24;;;;;;;3.20;0.73;;;9.30;99.90;;;;;;4980506;28;20232;-91
2020/12/01 07:25:25;;;;;;;7.90;0.73;;;9.40;99.90;;;;;;4921457;29;20371;-90
2020/12/01 07:28:21;;;;;;;4.77;3.17;;;9.30;99.90;;;;;;4969720;28;20977;-90
2020/12/01 07:30:50;;;;;;;5.10;1.13;;;9.40;99.90;;;;;;4981929;28;20227;-89
2020/12/01 07:33:20;;;;;;;1.90;0.73;;;9.50;99.90;;;;;;4983184;28;20243;-89
2020/12/01 07:35:48;;;;;;;4.10;0.87;;;9.50;99.90;;;;;;4981499;28;20700;-90
2020/12/01 07:38:37;;;;;;;2.43;0.83;;;9.50;99.90;;;;;;4997510;28;20192;-92
2020/12/01 07:41:22;;;;;;;0.43;0.43;;;9.50;99.90;;;;;;5007827;28;21008;-91
2020/12/01 07:44:09;;;;;;;1.00;0.87;;;9.50;99.90;;;;;;5001497;28;20219;-91
2020/12/01 07:46:52;;;;;;;0.70;0.50;;;9.50;99.90;;;;;;5000441;28;20238;-89
2020/12/01 07:49:21;;;;;;;0.10;0.10;;;9.50;99.90;;;;;;5001394;28;20225;-92
2020/12/01 07:51:48;;;;;;;0.53;0.53;;;9.40;99.90;;;;;;4990668;28;20306;-92
2020/12/01 07:54:25;;;;;;;0.47;0.47;;;9.40;99.90;;;;;;4986086;28;20216;-91
2020/12/01 07:56:50;;;;;;;1.50;1.03;;;9.40;99.90;;;;;;4967604;28;20226;-91
2020/12/01 07:59:16;;;;;;;1.80;0.70;;;9.40;99.90;;;;;;4967757;28;20207;-88
2020/12/01 08:01:44;;;;;;;1.37;1.20;;;9.40;99.90;;;;;;4982166;28;20219;-90
2020/12/01 08:04:19;;;;;;;7.40;0.70;;;9.30;99.90;;;;;;4979494;28;20251;-91
2020/12/01 08:06:45;;;;;;;0.57;0.57;;;9.30;99.90;;;;;;4979444;28;20231;-92
2020/12/01 08:09:22;;;;;;;0.10;0.10;;;9.40;99.90;;;;;;4980719;28;20216;-91
2020/12/01 08:11:49;;;;;;;0.47;0.47;;;9.30;99.90;;;;;;4980387;28;20230;-92
2020/12/01 08:14:16;;;;;;;0.67;0.67;;;9.30;99.90;;;;;;4965813;28;20751;-91
2020/12/01 08:16:43;;;;;;;0.10;0.10;;;9.40;99.90;;;;;;4978517;28;20239;-92
2020/12/01 08:19:13;;;;;;;1.00;1.00;;;9.40;99.90;;;;;;4996622;28;20258;-91
2020/12/01 08:21:44;;;;;;;4.30;1.83;;;9.30;99.90;;;;;;4979493;28;20227;-92
2020/12/01 08:24:23;;;;;;;1.50;1.27;;;9.30;99.90;;;;;;4963878;28;20215;-90
2020/12/01 08:27:04;;;;;;;2.67;0.83;;;9.30;99.90;;;;;;4979863;28;20238;-90
2020/12/01 08:29:34;;;;;;;3.60;0.77;;;9.40;99.90;;;;;;4971120;28;20188;-91
2020/12/01 08:32:18;;;;;;;2.03;1.83;;;9.50;99.90;;;;;;4983372;28;20188;-91
2020/12/01 08:34:55;;;;;;;1.60;0.57;;;9.50;99.90;;;;;;4981758;28;20220;-94
2020/12/01 08:37:56;;;;;;;0.70;0.40;;;9.50;99.90;;;;;;4980260;28;20258;-91
2020/12/01 08:40:50;;;;;;;19.27;3.60;;;9.60;99.90;;;;;;4980812;28;20220;-91
2020/12/01 08:43:25;;;;;;;4.50;2.53;;;9.50;99.90;;;;;;5009313;28;20235;-92
2020/12/01 08:46:28;;;;;;;1.90;0.80;;;9.50;99.90;;;;;;4986422;28;20215;-91
2020/12/01 08:49:23;;;;;;;3.20;1.43;;;9.40;99.90;;;;;;4980000;28;20220;-92
2020/12/01 08:51:58;;;;;;;1.13;0.67;;;9.40;99.90;;;;;;4980636;28;20222;-91
2020/12/01 08:54:34;;;;;;;2.00;1.90;;;9.40;99.90;;;;;;4990284;28;20301;-90
2020/12/01 08:57:12;;;;;;;8.77;1.23;;;9.40;99.90;;;;;;5000495;28;20574;-91
2020/12/01 08:59:46;;;;;;;5.17;0.93;;;9.30;99.90;;;;;;4999794;28;20227;-91
2020/12/01 09:02:13;;;;;;;1.23;0.90;;;9.30;99.90;;;;;;4999056;28;20207;-93
2020/12/01 09:04:39;;;;;;;0.67;0.53;;;9.30;99.90;;;;;;4995842;28;20251;-90
2020/12/01 09:07:14;;;;;;;0.40;0.40;;;9.30;99.90;;;;;;4981748;28;20778;-93
2020/12/01 09:09:42;;;;;;;2.20;0.93;;;9.30;99.90;;;;;;4981879;28;20219;-92
2020/12/01 09:12:28;;;;;;;0.97;0.57;;;9.30;99.90;;;;;;4983072;28;22687;-91
2020/12/01 09:15:07;;;;;;;1.20;1.20;;;9.40;99.90;;;;;;4987907;28;20603;-92
2020/12/01 09:23:35;;;;;;;9.77;0.97;;;9.50;99.90;;;;;;5004021;28;20211;-92
2020/12/01 09:26:14;;;;;;;0.87;0.87;;;9.60;99.90;;;;;;5002450;28;20582;-90
2020/12/01 09:28:50;;;;;;;2.30;0.40;;;9.60;99.90;;;;;;5001252;28;20298;-92
2020/12/01 09:31:20;;;;;;;7.87;1.10;;;9.60;99.90;;;;;;4978753;28;20230;-91
2020/12/01 09:33:45;;;;;;;1.00;1.00;;;9.50;99.90;;;;;;4986164;28;21189;-90
2020/12/01 09:36:23;;;;;;;2.53;0.60;;;9.60;99.90;;;;;;4995536;28;20224;-91
2020/12/01 09:38:50;;;;;;;0.80;0.67;;;9.70;99.90;;;;;;4984677;28;20949;-91
2020/12/01 09:41:18;;;;;;;1.53;1.30;;;9.60;99.90;;;;;;4985362;28;20311;-93
2020/12/01 09:43:56;;;;;;;3.53;1.40;;;9.70;99.90;;;;;;4983234;28;20562;-91
2020/12/01 09:46:50;;;;;;;0.97;0.93;;;9.70;99.90;;;;;;4989306;28;20219;-90
2020/12/01 09:49:08;;;;;;;5.20;1.53;;;9.70;99.90;;;;;;4983784;28;21192;-91
2020/12/01 09:51:34;;;;;;;2.63;1.07;;;9.70;99.90;;;;;;4966206;28;20226;-92
2020/12/01 09:56:54;;;;;;;0.40;0.40;;;9.70;99.90;;;;;;5003487;28;21021;-92
2020/12/01 10:05:00;;;;;;;0.73;0.67;;;9.90;99.90;;;;;;5002528;28;20239;-91
2020/12/01 10:18:22;;;;;;;2.90;2.67;;;9.80;99.90;;;;;;4981521;28;20215;-91
2020/12/01 10:36:42;;;;;;;0.60;0.60;;;9.80;99.90;;;;;;5002639;28;20218;-93
2020/12/01 10:39:08;;;;;;;1.23;0.57;;;9.80;99.90;;;;;;4995056;28;20258;-90
2020/12/01 10:41:35;;;;;;;0.63;0.37;;;9.80;99.90;;;;;;4985121;28;20216;-90
2020/12/01 10:44:02;;;;;;;0.83;0.83;;;9.90;99.90;;;;;;5002492;28;20252;-90
2020/12/01 10:46:28;;;;;;;0.30;0.30;;;9.90;99.90;;;;;;4998267;28;20311;-92
2020/12/01 10:48:54;;;;;;;10.47;1.97;;;9.90;99.90;;;;;;4995878;28;20238;-90
2020/12/01 10:51:20;;;;;;;0.30;0.30;;;10.00;99.90;;;;;;4995954;28;20219;-91
2020/12/01 10:53:46;;;;;;;0.30;0.30;;;10.00;99.90;;;;;;4992395;28;20223;-92
2020/12/01 10:56:13;;;;;;;2.30;0.50;;;10.00;99.90;;;;;;4978142;28;20196;-91
2020/12/01 10:58:39;;;;;;;3.23;0.87;;;10.00;99.90;;;;;;4995928;28;20337;-94
2020/12/01 11:01:05;;;;;;;0.30;0.30;;;10.00;99.90;;;;;;4981828;28;20281;-93
2020/12/01 11:03:30;;;;;;;2.17;1.43;;;10.00;99.90;;;;;;4973187;28;20330;-91
2020/12/01 11:05:56;;;;;;;5.10;1.33;;;10.00;99.90;;;;;;4976848;28;20223;-93
2020/12/01 11:08:22;;;;;;;0.20;0.20;;;10.00;99.90;;;;;;4979670;28;20713;-93
2020/12/01 11:10:48;;;;;;;0.97;0.97;;;10.00;99.90;;;;;;4998730;28;20191;-91
2020/12/01 11:13:14;;;;;;;5.77;1.30;;;10.00;99.90;;;;;;4988489;28;20228;-92
2020/12/01 11:15:40;;;;;;;0.40;0.40;;;10.00;99.90;;;;;;4984745;28;20224;-91
2020/12/01 11:18:06;;;;;;;0.53;0.53;;;10.00;99.90;;;;;;4979008;28;20665;-92
2020/12/01 11:20:33;;;;;;;3.77;1.03;;;9.90;99.90;;;;;;4978786;28;20192;-92
2020/12/01 11:23:00;;;;;;;1.70;0.50;;;9.90;99.90;;;;;;4966669;28;20554;-92
2020/12/01 11:25:25;;;;;;;3.37;1.17;;;9.90;99.90;;;;;;4965475;28;20211;-91
2020/12/01 11:27:51;;;;;;;1.17;1.07;;;9.90;99.90;;;;;;4963918;28;20216;-91
2020/12/01 11:30:22;;;;;;;1.27;0.30;;;9.80;99.90;;;;;;4965326;28;20255;-92
2020/12/01 11:32:50;;;;;;;21.33;1.87;;;9.80;99.90;;;;;;4970505;28;20541;-92
2020/12/01 11:35:19;;;;;;;2.53;1.00;;;9.80;99.90;;;;;;5004025;28;20179;-93
2020/12/01 11:37:45;;;;;;;1.07;1.07;;;9.80;99.90;;;;;;4981908;28;20212;-92
2020/12/01 11:40:12;;;;;;;0.20;0.20;;;9.90;99.90;;;;;;4981282;28;20265;-93
2020/12/01 11:42:38;;;;;;;0.33;0.33;;;9.80;99.90;;;;;;4981775;28;20691;-92
2020/12/01 11:45:06;;;;;;;0.77;0.60;;;9.80;99.90;;;;;;4986829;28;20250;-91
2020/12/01 11:47:31;;;;;;;1.13;1.07;;;9.70;99.90;;;;;;4999722;28;20187;-92
2020/12/01 11:49:57;;;;;;;5.63;1.13;;;9.70;99.90;;;;;;4985812;28;20187;-92
2020/12/01 11:52:23;;;;;;;1.03;0.83;;;9.70;99.90;;;;;;4967076;28;20224;-92
2020/12/01 11:54:49;;;;;;;3.50;1.33;;;9.70;99.90;;;;;;4963470;28;20996;-94
2020/12/01 11:57:15;;;;;;;0.70;0.70;;;9.70;99.90;;;;;;4961515;28;20215;-93
2020/12/01 11:59:40;;;;;;;2.97;1.23;;;9.50;99.90;;;;;;4976639;28;20299;-93
2020/12/01 12:02:06;;;;;;;2.03;0.83;;;9.50;99.90;;;;;;4978803;28;20318;-92
2020/12/01 12:04:32;;;;;;;0.83;0.80;;;9.40;99.90;;;;;;4974819;28;20243;-92
2020/12/01 12:06:59;;;;;;;3.07;0.50;;;9.30;99.90;;;;;;4959805;28;20255;-93
2020/12/01 12:09:26;;;;;;;4.33;1.37;;;9.20;99.90;;;;;;4979825;28;20224;-92
2020/12/01 12:11:52;;;;;;;1.93;1.33;;;9.20;99.90;;;;;;4984248;28;20215;-92
2020/12/01 12:14:18;;;;;;;1.30;0.70;;;9.20;99.90;;;;;;4996637;28;20308;-91
2020/12/01 12:16:54;;;;;;;0.67;0.43;;;9.20;99.90;;;;;;4980841;28;20219;-91
2020/12/01 12:19:19;;;;;;;0.50;0.50;;;9.10;99.90;;;;;;4979832;28;20227;-92
2020/12/01 12:21:45;;;;;;;0.63;0.27;;;9.10;99.90;;;;;;4993095;28;20239;-92
2020/12/01 12:24:11;;;;;;;2.87;0.53;;;9.10;99.90;;;;;;4971154;28;20241;-93
2020/12/01 12:26:37;;;;;;;0.43;0.40;;;9.20;99.90;;;;;;4981732;28;20231;-93
2020/12/01 12:29:03;;;;;;;0.63;0.63;;;9.20;99.90;;;;;;4966054;28;20630;-93
2020/12/01 12:31:29;;;;;;;1.97;0.80;;;9.30;99.90;;;;;;4979626;28;20271;-92
2020/12/01 12:33:55;;;;;;;5.60;0.50;;;9.30;99.90;;;;;;4992694;28;20735;-93
2020/12/01 12:36:21;;;;;;;6.37;1.37;;;9.30;99.90;;;;;;4980642;28;20266;-92
2020/12/01 12:38:46;;;;;;;0.77;0.77;;;9.40;99.90;;;;;;4974162;28;20705;-91
2020/12/01 12:41:15;;;;;;;1.13;1.00;;;9.40;99.90;;;;;;4986249;28;20218;-92
2020/12/01 12:43:41;;;;;;;0.10;0.10;;;9.50;99.90;;;;;;4982163;28;20358;-93
2020/12/01 12:46:07;;;;;;;0.20;0.20;;;9.50;99.90;;;;;;4966902;28;20967;-93
2020/12/01 12:48:33;;;;;;;6.33;0.47;;;9.50;99.90;;;;;;4982866;28;20211;-93
2020/12/01 12:51:01;;;;;;;6.03;0.40;;;9.50;99.90;;;;;;4967621;28;20305;-92
2020/12/01 12:53:27;;;;;;;0.43;0.43;;;9.50;99.90;;;;;;4983016;28;20274;-94
2020/12/01 12:55:53;;;;;;;3.20;0.73;;;9.50;99.90;;;;;;4987286;28;20610;-95
2020/12/01 12:58:20;;;;;;;0.30;0.30;;;9.40;99.90;;;;;;4984264;28;20227;-93
2020/12/01 13:00:46;;;;;;;0.63;0.63;;;9.40;99.90;;;;;;4990073;28;20239;-92
2020/12/01 13:03:12;;;;;;;8.03;0.80;;;9.40;99.90;;;;;;4989693;28;20242;-91
2020/12/01 13:05:37;;;;;;;1.03;1.03;;;9.40;99.90;;;;;;4986420;28;20314;-91
2020/12/01 13:08:07;;;;;;;1.40;0.50;;;9.40;99.90;;;;;;5004609;28;20191;-93
2020/12/01 13:10:34;;;;;;;1.40;0.50;;;9.50;99.90;;;;;;4985418;28;20211;-93
2020/12/01 13:13:00;;;;;;;0.10;0.10;;;9.40;99.90;;;;;;4988041;28;20223;-92
2020/12/01 13:15:28;;;;;;;3.17;0.50;;;9.40;99.90;;;;;;4983430;28;20216;-92
2020/12/01 13:17:55;;;;;;;0.50;0.50;;;9.40;99.90;;;;;;5001791;28;20230;-93
2020/12/01 13:20:26;;;;;;;0.43;0.40;;;9.40;99.90;;;;;;5002353;28;20230;-92
2020/12/01 13:22:53;;;;;;;13.70;1.00;;;9.40;99.90;;;;;;4995118;28;20234;-93
2020/12/01 13:25:19;;;;;;;4.13;0.97;;;9.40;99.90;;;;;;4984279;28;20212;-93
2020/12/01 13:27:45;;;;;;;7.60;1.27;;;9.40;99.90;;;;;;4982453;28;20587;-93
2020/12/01 13:30:13;;;;;;;7.90;1.57;;;9.50;99.90;;;;;;4974583;28;20238;-93
2020/12/01 13:32:39;;;;;;;1.47;1.37;;;9.50;99.90;;;;;;4992916;28;20237;-94
2020/12/01 13:35:07;;;;;;;3.80;0.67;;;9.50;99.90;;;;;;4987246;28;20310;-93
2020/12/01 13:37:33;;;;;;;7.30;1.10;;;9.50;99.90;;;;;;4983526;28;20275;-94
2020/12/01 13:39:58;;;;;;;2.63;1.00;;;9.50;99.90;;;;;;4982766;28;20291;-95
2020/12/01 13:42:24;;;;;;;3.40;0.80;;;9.60;99.90;;;;;;4965285;28;20235;-94
2020/12/01 13:44:50;;;;;;;2.27;0.90;;;9.50;99.90;;;;;;4981973;28;20231;-93
2020/12/01 13:47:16;;;;;;;2.53;1.17;;;9.60;99.90;;;;;;4984685;28;20513;-93
2020/12/01 13:49:42;;;;;;;5.00;0.97;;;9.50;99.90;;;;;;4982055;28;20227;-94
2020/12/01 13:52:08;;;;;;;0.70;0.70;;;9.50;99.90;;;;;;4996058;28;20591;-94
2020/12/01 13:54:34;;;;;;;1.60;0.83;;;9.50;99.90;;;;;;5002082;28;20246;-93
2020/12/01 13:57:02;;;;;;;4.00;1.40;;;9.50;99.90;;;;;;4992924;28;20228;-93